sensor_id;sensor_type;location;lat;lon;timestamp;pressure;altitude;pressure_sealevel;temperature;humidity
62402;BME280;48440;51.224;22.506;2022-12-07T00:01:40;98546.66;;;1.36;89.20
62402;BME280;48440;51.224;22.506;2022-12-07T00:04:08;98549.72;;;1.40;89.18
62402;BME280;48440;51.224;22.506;2022-12-07T00:06:40;98544.38;;;1.40;88.76
62402;BME280;48440;51.224;22.506;2022-12-07T00:09:09;98544.38;;;1.40;88.82
62402;BME280;48440;51.224;22.506;2022-12-07T00:11:35;98543.78;;;1.38;89.50
62402;BME280;48440;51.224;22.506;2022-12-07T00:14:05;98538.00;;;1.41;89.17
62402;BME280;48440;51.224;22.506;2022-12-07T00:16:33;98540.47;;;1.42;89.28
62402;BME280;48440;51.224;22.506;2022-12-07T00:19:00;98537.56;;;1.44;89.25
62402;BME280;48440;51.224;22.506;2022-12-07T00:21:33;98530.38;;;1.44;89.29
62402;BME280;48440;51.224;22.506;2022-12-07T00:24:00;98530.16;;;1.46;89.42
62402;BME280;48440;51.224;22.506;2022-12-07T00:26:28;98537.75;;;1.49;89.38
62402;BME280;48440;51.224;22.506;2022-12-07T00:28:57;98536.72;;;1.50;89.34
62402;BME280;48440;51.224;22.506;2022-12-07T00:31:25;98525.19;;;1.56;89.19
62402;BME280;48440;51.224;22.506;2022-12-07T00:33:51;98534.22;;;1.55;89.24
62402;BME280;48440;51.224;22.506;2022-12-07T00:36:21;98541.44;;;1.54;88.86
62402;BME280;48440;51.224;22.506;2022-12-07T00:38:47;98543.66;;;1.57;89.30
62402;BME280;48440;51.224;22.506;2022-12-07T00:41:18;98536.44;;;1.58;89.34
62402;BME280;48440;51.224;22.506;2022-12-07T00:43:46;98533.34;;;1.61;89.22
62402;BME280;48440;51.224;22.506;2022-12-07T00:46:12;98537.88;;;1.60;88.83
62402;BME280;48440;51.224;22.506;2022-12-07T00:48:37;98537.06;;;1.60;89.26
62402;BME280;48440;51.224;22.506;2022-12-07T00:51:04;98537.88;;;1.60;89.44
62402;BME280;48440;51.224;22.506;2022-12-07T00:53:30;98542.41;;;1.60;89.03
62402;BME280;48440;51.224;22.506;2022-12-07T00:55:57;98535.81;;;1.62;89.28
62402;BME280;48440;51.224;22.506;2022-12-07T00:58:23;98543.84;;;1.62;89.26
62402;BME280;48440;51.224;22.506;2022-12-07T01:00:49;98533.75;;;1.64;89.39
62402;BME280;48440;51.224;22.506;2022-12-07T01:03:15;98536.41;;;1.64;89.35
62402;BME280;48440;51.224;22.506;2022-12-07T01:05:50;98529.81;;;1.67;89.24
62402;BME280;48440;51.224;22.506;2022-12-07T01:08:16;98530.63;;;1.67;89.53
62402;BME280;48440;51.224;22.506;2022-12-07T01:10:41;98524.47;;;1.67;89.18
62402;BME280;48440;51.224;22.506;2022-12-07T01:13:06;98524.25;;;1.68;89.30
62402;BME280;48440;51.224;22.506;2022-12-07T01:15:32;98521.56;;;1.68;89.09
62402;BME280;48440;51.224;22.506;2022-12-07T01:17:57;98524.03;;;1.70;89.42
62402;BME280;48440;51.224;22.506;2022-12-07T01:20:23;98518.47;;;1.72;89.39
62402;BME280;48440;51.224;22.506;2022-12-07T01:22:48;98522.78;;;1.73;89.14
62402;BME280;48440;51.224;22.506;2022-12-07T01:25:14;98523.41;;;1.75;89.23
62402;BME280;48440;51.224;22.506;2022-12-07T01:27:40;98517.00;;;1.76;89.18
62402;BME280;48440;51.224;22.506;2022-12-07T01:30:06;98517.00;;;1.76;88.86
62402;BME280;48440;51.224;22.506;2022-12-07T01:32:32;98515.16;;;1.76;89.19
62402;BME280;48440;51.224;22.506;2022-12-07T01:34:58;98515.16;;;1.76;89.26
62402;BME280;48440;51.224;22.506;2022-12-07T01:37:24;98505.28;;;1.77;88.83
62402;BME280;48440;51.224;22.506;2022-12-07T01:39:50;98514.13;;;1.77;89.31
62402;BME280;48440;51.224;22.506;2022-12-07T01:42:16;98513.09;;;1.78;89.13
62402;BME280;48440;51.224;22.506;2022-12-07T01:47:50;98507.50;;;1.80;89.22
62402;BME280;48440;51.224;22.506;2022-12-07T01:50:18;98508.56;;;1.79;88.96
62402;BME280;48440;51.224;22.506;2022-12-07T01:52:48;98508.56;;;1.79;89.02
62402;BME280;48440;51.224;22.506;2022-12-07T01:55:16;98507.50;;;1.80;89.22
62402;BME280;48440;51.224;22.506;2022-12-07T01:57:49;98503.19;;;1.79;88.84
62402;BME280;48440;51.224;22.506;2022-12-07T02:00:15;98502.97;;;1.80;89.01
62402;BME280;48440;51.224;22.506;2022-12-07T02:02:48;98508.34;;;1.80;88.69
62402;BME280;48440;51.224;22.506;2022-12-07T02:05:16;98508.13;;;1.82;88.59
62402;BME280;48440;51.224;22.506;2022-12-07T02:07:42;98504.63;;;1.81;88.57
62402;BME280;48440;51.224;22.506;2022-12-07T02:10:16;98506.47;;;1.81;88.98
62402;BME280;48440;51.224;22.506;2022-12-07T02:12:44;98503.56;;;1.82;88.52
62402;BME280;48440;51.224;22.506;2022-12-07T02:15:12;98502.97;;;1.80;88.75
62402;BME280;48440;51.224;22.506;2022-12-07T02:20:39;98507.06;;;1.83;88.52
62402;BME280;48440;51.224;22.506;2022-12-07T02:31:31;98510.72;;;1.88;88.12
62402;BME280;48440;51.224;22.506;2022-12-07T02:34:05;98501.88;;;1.88;87.77
62402;BME280;48440;51.224;22.506;2022-12-07T02:36:38;98506.41;;;1.87;87.32
62402;BME280;48440;51.224;22.506;2022-12-07T02:39:11;98504.34;;;1.89;87.58
62402;BME280;48440;51.224;22.506;2022-12-07T02:41:48;98502.47;;;1.90;87.21
62402;BME280;48440;51.224;22.506;2022-12-07T02:44:18;98502.69;;;1.88;86.80
62402;BME280;48440;51.224;22.506;2022-12-07T02:46:55;98499.81;;;1.90;87.14
62402;BME280;48440;51.224;22.506;2022-12-07T02:49:24;98499.81;;;1.90;87.00
62402;BME280;48440;51.224;22.506;2022-12-07T02:51:52;98500.03;;;1.88;87.29
62402;BME280;48440;51.224;22.506;2022-12-07T02:54:19;98490.34;;;1.87;87.02
62402;BME280;48440;51.224;22.506;2022-12-07T03:07:59;98489.09;;;1.90;87.33
62402;BME280;48440;51.224;22.506;2022-12-07T03:18:11;98490.97;;;1.89;86.82
62402;BME280;48440;51.224;22.506;2022-12-07T03:20:39;98487.25;;;1.90;86.99
62402;BME280;48440;51.224;22.506;2022-12-07T03:23:07;98485.00;;;1.87;86.50
62402;BME280;48440;51.224;22.506;2022-12-07T03:25:40;98494.06;;;1.86;86.38
62402;BME280;48440;51.224;22.506;2022-12-07T03:28:08;98499.84;;;1.83;86.79
62402;BME280;48440;51.224;22.506;2022-12-07T03:33:37;98478.09;;;1.80;86.58
62402;BME280;48440;51.224;22.506;2022-12-07T03:36:07;98476.44;;;1.79;86.47
62402;BME280;48440;51.224;22.506;2022-12-07T03:38:45;98488.63;;;1.75;85.84
62402;BME280;48440;51.224;22.506;2022-12-07T03:41:33;98486.97;;;1.74;86.28
62402;BME280;48440;51.224;22.506;2022-12-07T03:44:00;98480.03;;;1.66;86.10
62402;BME280;48440;51.224;22.506;2022-12-07T03:46:35;98477.56;;;1.64;85.79
62402;BME280;48440;51.224;22.506;2022-12-07T03:54:59;98480.34;;;1.51;85.09
62402;BME280;48440;51.224;22.506;2022-12-07T03:57:27;98471.94;;;1.48;85.03
62402;BME280;48440;51.224;22.506;2022-12-07T03:59:55;98479.34;;;1.46;85.41
62402;BME280;48440;51.224;22.506;2022-12-07T04:02:22;98473.41;;;1.44;84.87
62402;BME280;48440;51.224;22.506;2022-12-07T04:04:49;98466.25;;;1.38;84.95
62402;BME280;48440;51.224;22.506;2022-12-07T04:07:15;98466.25;;;1.38;84.98
62402;BME280;48440;51.224;22.506;2022-12-07T04:09:40;98459.91;;;1.32;84.91
62402;BME280;48440;51.224;22.506;2022-12-07T04:12:06;98465.47;;;1.30;85.56
62402;BME280;48440;51.224;22.506;2022-12-07T04:14:34;98462.22;;;1.28;85.57
62402;BME280;48440;51.224;22.506;2022-12-07T04:17:00;98457.06;;;1.27;85.58
62402;BME280;48440;51.224;22.506;2022-12-07T04:19:28;98450.47;;;1.29;85.45
62402;BME280;48440;51.224;22.506;2022-12-07T04:21:54;98457.91;;;1.27;85.38
62402;BME280;48440;51.224;22.506;2022-12-07T04:24:20;98458.09;;;1.26;85.33
62402;BME280;48440;51.224;22.506;2022-12-07T04:26:46;98459.75;;;1.27;85.06
62402;BME280;48440;51.224;22.506;2022-12-07T04:29:12;98460.19;;;1.24;84.87
62402;BME280;48440;51.224;22.506;2022-12-07T04:31:38;98461.63;;;1.20;85.29
62402;BME280;48440;51.224;22.506;2022-12-07T04:34:04;98455.47;;;1.19;85.58
62402;BME280;48440;51.224;22.506;2022-12-07T04:36:31;98460.59;;;1.21;85.19
62402;BME280;48440;51.224;22.506;2022-12-07T04:38:56;98457.72;;;1.22;85.42
62402;BME280;48440;51.224;22.506;2022-12-07T04:41:22;98455.25;;;1.21;85.03
62402;BME280;48440;51.224;22.506;2022-12-07T04:44:01;98455.47;;;1.19;85.46
62402;BME280;48440;51.224;22.506;2022-12-07T04:46:28;98452.56;;;1.21;85.52
62402;BME280;48440;51.224;22.506;2022-12-07T04:48:54;98451.94;;;1.25;85.73
62402;BME280;48440;51.224;22.506;2022-12-07T04:51:22;98448.44;;;1.25;85.46
62402;BME280;48440;51.224;22.506;2022-12-07T04:53:51;98456.91;;;1.22;85.21
62402;BME280;48440;51.224;22.506;2022-12-07T04:56:17;98447.44;;;1.19;84.94
62402;BME280;48440;51.224;22.506;2022-12-07T04:58:44;98453.81;;;1.18;85.41
62402;BME280;48440;51.224;22.506;2022-12-07T05:01:15;98454.66;;;1.19;85.10
62402;BME280;48440;51.224;22.506;2022-12-07T05:03:41;98454.81;;;1.24;85.37
62402;BME280;48440;51.224;22.506;2022-12-07T05:06:07;98457.50;;;1.24;85.10
62402;BME280;48440;51.224;22.506;2022-12-07T05:08:33;98455.03;;;1.22;85.00
62402;BME280;48440;51.224;22.506;2022-12-07T05:11:00;98449.47;;;1.24;84.92
62402;BME280;48440;51.224;22.506;2022-12-07T05:13:25;98452.16;;;1.24;85.41
62402;BME280;48440;51.224;22.506;2022-12-07T05:15:51;98446.00;;;1.23;85.36
62402;BME280;48440;51.224;22.506;2022-12-07T05:18:17;98448.06;;;1.21;85.23
62402;BME280;48440;51.224;22.506;2022-12-07T05:20:43;98444.56;;;1.21;85.45
62402;BME280;48440;51.224;22.506;2022-12-07T05:23:09;98445.16;;;1.23;85.46
62402;BME280;48440;51.224;22.506;2022-12-07T05:25:35;98436.94;;;1.24;85.37
62402;BME280;48440;51.224;22.506;2022-12-07T05:28:01;98446.19;;;1.22;85.34
62402;BME280;48440;51.224;22.506;2022-12-07T05:30:27;98438.19;;;1.22;85.21
62402;BME280;48440;51.224;22.506;2022-12-07T05:32:52;98439.00;;;1.22;85.38
62402;BME280;48440;51.224;22.506;2022-12-07T05:35:18;98435.28;;;1.23;85.77
62402;BME280;48440;51.224;22.506;2022-12-07T05:37:44;98436.72;;;1.26;85.22
62402;BME280;48440;51.224;22.506;2022-12-07T05:40:11;98440.44;;;1.25;85.46
62402;BME280;48440;51.224;22.506;2022-12-07T05:42:37;98444.31;;;1.29;85.04
62402;BME280;48440;51.224;22.506;2022-12-07T05:45:03;98436.28;;;1.29;85.42
62402;BME280;48440;51.224;22.506;2022-12-07T05:47:29;98440.00;;;1.28;84.82
62402;BME280;48440;51.224;22.506;2022-12-07T05:49:54;98444.31;;;1.29;84.94
62402;BME280;48440;51.224;22.506;2022-12-07T05:52:20;98449.66;;;1.29;85.13
62402;BME280;48440;51.224;22.506;2022-12-07T05:54:46;98450.47;;;1.29;85.61
62402;BME280;48440;51.224;22.506;2022-12-07T05:57:12;98449.41;;;1.30;85.18
62402;BME280;48440;51.224;22.506;2022-12-07T05:59:37;98447.56;;;1.31;85.54
62402;BME280;48440;51.224;22.506;2022-12-07T06:02:05;98453.38;;;1.28;85.39
62402;BME280;48440;51.224;22.506;2022-12-07T06:04:35;98460.50;;;1.34;85.09
62402;BME280;48440;51.224;22.506;2022-12-07T06:07:01;98455.38;;;1.32;84.97
62402;BME280;48440;51.224;22.506;2022-12-07T06:09:27;98446.31;;;1.33;85.15
62402;BME280;48440;51.224;22.506;2022-12-07T06:11:54;98445.88;;;1.36;84.95
62402;BME280;48440;51.224;22.506;2022-12-07T06:14:39;98449.16;;;1.39;84.55
62402;BME280;48440;51.224;22.506;2022-12-07T06:17:05;98450.59;;;1.41;84.23
62402;BME280;48440;51.224;22.506;2022-12-07T06:19:30;98449.97;;;1.39;84.46
62402;BME280;48440;51.224;22.506;2022-12-07T06:21:56;98452.66;;;1.39;84.49
62402;BME280;48440;51.224;22.506;2022-12-07T06:24:22;98455.94;;;1.41;84.65
62402;BME280;48440;51.224;22.506;2022-12-07T06:26:48;98446.88;;;1.42;84.11
62402;BME280;48440;51.224;22.506;2022-12-07T06:29:14;98456.75;;;1.42;84.20
62402;BME280;48440;51.224;22.506;2022-12-07T06:31:40;98453.69;;;1.38;84.28
62402;BME280;48440;51.224;22.506;2022-12-07T06:34:11;98455.34;;;1.39;84.34
62402;BME280;48440;51.224;22.506;2022-12-07T06:36:37;98455.13;;;1.41;84.41
62402;BME280;48440;51.224;22.506;2022-12-07T06:39:03;98456.16;;;1.40;84.58
62402;BME280;48440;51.224;22.506;2022-12-07T06:41:29;98451.41;;;1.42;84.61
62402;BME280;48440;51.224;22.506;2022-12-07T06:43:55;98451.19;;;1.43;84.29
62402;BME280;48440;51.224;22.506;2022-12-07T06:46:20;98449.56;;;1.42;84.08
62402;BME280;48440;51.224;22.506;2022-12-07T06:48:46;98453.25;;;1.41;83.85
62402;BME280;48440;51.224;22.506;2022-12-07T06:51:12;98450.81;;;1.40;83.93
62402;BME280;48440;51.224;22.506;2022-12-07T06:53:37;98452.44;;;1.41;84.23
62402;BME280;48440;51.224;22.506;2022-12-07T06:56:04;98451.41;;;1.42;84.54
62402;BME280;48440;51.224;22.506;2022-12-07T06:58:29;98454.50;;;1.39;84.32
62402;BME280;48440;51.224;22.506;2022-12-07T07:00:55;98457.34;;;1.44;84.28
62402;BME280;48440;51.224;22.506;2022-12-07T07:03:20;98450.81;;;1.40;84.14
62402;BME280;48440;51.224;22.506;2022-12-07T07:05:46;98452.44;;;1.41;83.84
62402;BME280;48440;51.224;22.506;2022-12-07T07:08:12;98452.66;;;1.39;84.34
62402;BME280;48440;51.224;22.506;2022-12-07T07:10:38;98452.22;;;1.42;84.32
62402;BME280;48440;51.224;22.506;2022-12-07T07:13:04;98457.56;;;1.42;83.90
62402;BME280;48440;51.224;22.506;2022-12-07T07:15:30;98453.25;;;1.41;84.13
62402;BME280;48440;51.224;22.506;2022-12-07T07:17:55;98457.34;;;1.44;84.06
62402;BME280;48440;51.224;22.506;2022-12-07T07:20:21;98451.63;;;1.40;83.31
62402;BME280;48440;51.224;22.506;2022-12-07T07:22:47;98455.34;;;1.39;84.05
62402;BME280;48440;51.224;22.506;2022-12-07T07:25:13;98453.69;;;1.38;83.94
62402;BME280;48440;51.224;22.506;2022-12-07T07:27:38;98452.88;;;1.38;84.56
62402;BME280;48440;51.224;22.506;2022-12-07T07:30:04;98456.56;;;1.36;84.25
62402;BME280;48440;51.224;22.506;2022-12-07T07:32:30;98452.47;;;1.34;84.35
62402;BME280;48440;51.224;22.506;2022-12-07T07:34:55;98451.22;;;1.36;84.22
62402;BME280;48440;51.224;22.506;2022-12-07T07:37:21;98453.91;;;1.36;84.25
62402;BME280;48440;51.224;22.506;2022-12-07T07:39:46;98453.50;;;1.33;84.37
62402;BME280;48440;51.224;22.506;2022-12-07T07:42:12;98458.66;;;1.34;84.42
62402;BME280;48440;51.224;22.506;2022-12-07T07:44:37;98454.75;;;1.30;84.24
62402;BME280;48440;51.224;22.506;2022-12-07T07:47:03;98457.22;;;1.32;85.02
62402;BME280;48440;51.224;22.506;2022-12-07T07:49:28;98454.34;;;1.33;84.47
62402;BME280;48440;51.224;22.506;2022-12-07T07:51:53;98456.41;;;1.31;84.29
62402;BME280;48440;51.224;22.506;2022-12-07T07:54:19;98455.97;;;1.34;84.68
62402;BME280;48440;51.224;22.506;2022-12-07T07:56:44;98449.41;;;1.30;84.10
62402;BME280;48440;51.224;22.506;2022-12-07T07:59:10;98453.72;;;1.31;84.21
62402;BME280;48440;51.224;22.506;2022-12-07T08:01:35;98456.41;;;1.31;84.38
62402;BME280;48440;51.224;22.506;2022-12-07T08:04:01;98457.22;;;1.32;84.26
62402;BME280;48440;51.224;22.506;2022-12-07T08:06:26;98462.56;;;1.32;84.73
62402;BME280;48440;51.224;22.506;2022-12-07T08:08:52;98456.19;;;1.33;84.68
62402;BME280;48440;51.224;22.506;2022-12-07T08:11:17;98454.34;;;1.33;84.29
62402;BME280;48440;51.224;22.506;2022-12-07T08:13:45;98459.69;;;1.33;84.47
62402;BME280;48440;51.224;22.506;2022-12-07T08:16:14;98457.41;;;1.37;84.69
62402;BME280;48440;51.224;22.506;2022-12-07T08:18:41;98464.16;;;1.40;84.82
62402;BME280;48440;51.224;22.506;2022-12-07T08:21:10;98461.69;;;1.45;84.21
62402;BME280;48440;51.224;22.506;2022-12-07T08:23:37;98463.75;;;1.43;84.13
62402;BME280;48440;51.224;22.506;2022-12-07T08:26:13;98462.94;;;1.42;84.39
62402;BME280;48440;51.224;22.506;2022-12-07T08:28:39;98465.59;;;1.42;84.37
62402;BME280;48440;51.224;22.506;2022-12-07T08:31:11;98465.41;;;1.37;83.91
62402;BME280;48440;51.224;22.506;2022-12-07T08:33:40;98469.72;;;1.38;84.46
62402;BME280;48440;51.224;22.506;2022-12-07T08:36:08;98460.28;;;1.35;83.96
62402;BME280;48440;51.224;22.506;2022-12-07T08:38:35;98467.88;;;1.39;83.81
62402;BME280;48440;51.224;22.506;2022-12-07T08:41:01;98467.28;;;1.36;83.98
62402;BME280;48440;51.224;22.506;2022-12-07T08:43:26;98460.06;;;1.37;84.12
62402;BME280;48440;51.224;22.506;2022-12-07T08:48:26;98468.91;;;1.38;84.33
62402;BME280;48440;51.224;22.506;2022-12-07T08:50:51;98466.03;;;1.39;84.17
62402;BME280;48440;51.224;22.506;2022-12-07T08:53:17;98458.22;;;1.38;84.08
62402;BME280;48440;51.224;22.506;2022-12-07T08:55:44;98462.34;;;1.33;83.90
62402;BME280;48440;51.224;22.506;2022-12-07T08:58:11;98460.09;;;1.30;84.23
62402;BME280;48440;51.224;22.506;2022-12-07T09:00:37;98465.84;;;1.34;83.74
62402;BME280;48440;51.224;22.506;2022-12-07T09:03:02;98459.06;;;1.31;84.17
62402;BME280;48440;51.224;22.506;2022-12-07T09:05:28;98455.16;;;1.34;84.04
62402;BME280;48440;51.224;22.506;2022-12-07T09:07:55;98457.81;;;1.34;83.55
62402;BME280;48440;51.224;22.506;2022-12-07T09:10:22;98446.72;;;1.37;84.21
62402;BME280;48440;51.224;22.506;2022-12-07T09:12:48;98453.91;;;1.36;83.93
62402;BME280;48440;51.224;22.506;2022-12-07T09:15:14;98452.66;;;1.39;83.86
62402;BME280;48440;51.224;22.506;2022-12-07T09:17:39;98445.63;;;1.45;84.06
62402;BME280;48440;51.224;22.506;2022-12-07T09:20:06;98446.84;;;1.49;83.62
62402;BME280;48440;51.224;22.506;2022-12-07T09:22:31;98460.00;;;1.50;83.58
62402;BME280;48440;51.224;22.506;2022-12-07T09:24:57;98453.63;;;1.51;83.55
62402;BME280;48440;51.224;22.506;2022-12-07T09:27:23;98449.50;;;1.49;83.36
62402;BME280;48440;51.224;22.506;2022-12-07T09:29:49;98449.09;;;1.52;83.49
62402;BME280;48440;51.224;22.506;2022-12-07T09:32:14;98450.56;;;1.48;83.19
62402;BME280;48440;51.224;22.506;2022-12-07T09:34:40;98445.63;;;1.45;83.74
62402;BME280;48440;51.224;22.506;2022-12-07T09:37:05;98452.84;;;1.44;84.11
62402;BME280;48440;51.224;22.506;2022-12-07T09:39:32;98449.72;;;1.47;83.71
62402;BME280;48440;51.224;22.506;2022-12-07T09:41:58;98439.03;;;1.47;83.92
62402;BME280;48440;51.224;22.506;2022-12-07T09:44:26;98435.31;;;1.48;83.38
62402;BME280;48440;51.224;22.506;2022-12-07T09:46:52;98435.09;;;1.50;83.68
62402;BME280;48440;51.224;22.506;2022-12-07T09:49:22;98436.75;;;1.51;83.40
62402;BME280;48440;51.224;22.506;2022-12-07T09:52:16;98444.34;;;1.54;83.48
62402;BME280;48440;51.224;22.506;2022-12-07T09:54:46;98437.56;;;1.51;83.39
62402;BME280;48440;51.224;22.506;2022-12-07T09:57:12;98439.59;;;1.56;83.37
62402;BME280;48440;51.224;22.506;2022-12-07T09:59:38;98437.34;;;1.53;83.37
62402;BME280;48440;51.224;22.506;2022-12-07T10:04:53;98443.88;;;1.57;83.31
62402;BME280;48440;51.224;22.506;2022-12-07T10:07:18;98443.06;;;1.56;83.42
62402;BME280;48440;51.224;22.506;2022-12-07T10:09:44;98445.31;;;1.59;83.71
62402;BME280;48440;51.224;22.506;2022-12-07T10:12:11;98442.78;;;1.64;83.02
62402;BME280;48440;51.224;22.506;2022-12-07T10:14:39;98443.00;;;1.63;83.39
62402;BME280;48440;51.224;22.506;2022-12-07T10:17:40;98444.44;;;1.65;83.30
62402;BME280;48440;51.224;22.506;2022-12-07T10:22:36;98449.78;;;1.65;82.89
62402;BME280;48440;51.224;22.506;2022-12-07T10:25:18;98452.91;;;1.62;82.63
62402;BME280;48440;51.224;22.506;2022-12-07T10:28:00;98450.22;;;1.62;82.90
62402;BME280;48440;51.224;22.506;2022-12-07T10:30:26;98448.38;;;1.63;83.08
62402;BME280;48440;51.224;22.506;2022-12-07T10:32:52;98448.97;;;1.65;83.34
62402;BME280;48440;51.224;22.506;2022-12-07T10:37:46;98456.16;;;1.64;83.03
62402;BME280;48440;51.224;22.506;2022-12-07T10:40:33;98447.53;;;1.62;82.87
62402;BME280;48440;51.224;22.506;2022-12-07T10:46:22;98451.44;;;1.66;83.21
62402;BME280;48440;51.224;22.506;2022-12-07T10:52:31;98461.47;;;1.71;83.34
62402;BME280;48440;51.224;22.506;2022-12-07T10:57:32;98457.13;;;1.77;83.06
62402;BME280;48440;51.224;22.506;2022-12-07T11:11:01;98457.72;;;1.79;83.33
62402;BME280;48440;51.224;22.506;2022-12-07T11:16:41;98440.03;;;1.78;83.51
62402;BME280;48440;51.224;22.506;2022-12-07T11:22:02;98450.28;;;1.81;83.00
62402;BME280;48440;51.224;22.506;2022-12-07T11:30:22;98452.16;;;1.80;82.94
62402;BME280;48440;51.224;22.506;2022-12-07T11:41:00;98450.50;;;1.79;83.26
62402;BME280;48440;51.224;22.506;2022-12-07T11:43:37;98458.16;;;1.76;83.34
62402;BME280;48440;51.224;22.506;2022-12-07T11:46:13;98447.25;;;1.77;83.50
62402;BME280;48440;51.224;22.506;2022-12-07T11:48:45;98447.84;;;1.79;83.40
62402;BME280;48440;51.224;22.506;2022-12-07T11:51:12;98447.84;;;1.79;83.48
62402;BME280;48440;51.224;22.506;2022-12-07T11:56:17;98453.19;;;1.79;83.11
62402;BME280;48440;51.224;22.506;2022-12-07T12:06:34;98451.34;;;1.80;83.63
62402;BME280;48440;51.224;22.506;2022-12-07T12:09:17;98446.59;;;1.82;84.25
62402;BME280;48440;51.224;22.506;2022-12-07T12:22:52;98449.47;;;1.80;83.29
62402;BME280;48440;51.224;22.506;2022-12-07T12:25:23;98447.84;;;1.79;83.60
62402;BME280;48440;51.224;22.506;2022-12-07T12:27:52;98452.38;;;1.79;83.73
62402;BME280;48440;51.224;22.506;2022-12-07T12:30:39;98452.59;;;1.77;83.44
62402;BME280;48440;51.224;22.506;2022-12-07T12:33:28;98455.09;;;1.72;83.75
62402;BME280;48440;51.224;22.506;2022-12-07T12:36:25;98446.25;;;1.72;84.01
62402;BME280;48440;51.224;22.506;2022-12-07T12:46:58;98439.91;;;1.66;84.30
62402;BME280;48440;51.224;22.506;2022-12-07T12:51:59;98441.34;;;1.68;84.20
62402;BME280;48440;51.224;22.506;2022-12-07T12:54:32;98440.91;;;1.72;84.66
62402;BME280;48440;51.224;22.506;2022-12-07T12:59:28;98441.50;;;1.74;84.13
62402;BME280;48440;51.224;22.506;2022-12-07T13:02:16;98450.13;;;1.76;84.32
62402;BME280;48440;51.224;22.506;2022-12-07T13:26:39;98456.78;;;1.66;84.21
62402;BME280;48440;51.224;22.506;2022-12-07T13:29:09;98456.34;;;1.69;84.72
62402;BME280;48440;51.224;22.506;2022-12-07T13:31:42;98455.53;;;1.69;84.46
62402;BME280;48440;51.224;22.506;2022-12-07T13:36:53;98459.63;;;1.72;84.56
62402;BME280;48440;51.224;22.506;2022-12-07T13:39:21;98454.69;;;1.68;84.30
62402;BME280;48440;51.224;22.506;2022-12-07T13:41:58;98454.09;;;1.66;84.44
62402;BME280;48440;51.224;22.506;2022-12-07T13:44:26;98460.28;;;1.67;84.46
62402;BME280;48440;51.224;22.506;2022-12-07T13:49:32;98459.44;;;1.66;84.52
62402;BME280;48440;51.224;22.506;2022-12-07T13:52:20;98451.66;;;1.65;84.24
62402;BME280;48440;51.224;22.506;2022-12-07T13:57:16;98458.25;;;1.62;84.49
62402;BME280;48440;51.224;22.506;2022-12-07T13:59:42;98453.94;;;1.61;84.75
62402;BME280;48440;51.224;22.506;2022-12-07T14:02:19;98449.00;;;1.58;84.79
62402;BME280;48440;51.224;22.506;2022-12-07T14:04:45;98463.19;;;1.59;84.86
62402;BME280;48440;51.224;22.506;2022-12-07T14:10:35;98448.56;;;1.61;84.59
62402;BME280;48440;51.224;22.506;2022-12-07T14:13:03;98455.66;;;1.56;84.34
62402;BME280;48440;51.224;22.506;2022-12-07T14:15:31;98446.84;;;1.49;84.13
62402;BME280;48440;51.224;22.506;2022-12-07T14:17:58;98453.66;;;1.45;84.82
62402;BME280;48440;51.224;22.506;2022-12-07T14:20:39;98457.75;;;1.47;85.05
62402;BME280;48440;51.224;22.506;2022-12-07T14:23:22;98452.19;;;1.49;84.73
62402;BME280;48440;51.224;22.506;2022-12-07T14:25:51;98460.44;;;1.47;84.92
62402;BME280;48440;51.224;22.506;2022-12-07T14:28:31;98453.44;;;1.46;85.13
62402;BME280;48440;51.224;22.506;2022-12-07T14:30:58;98458.56;;;1.48;84.93
62402;BME280;48440;51.224;22.506;2022-12-07T14:33:24;98459.38;;;1.48;85.26
62402;BME280;48440;51.224;22.506;2022-12-07T14:35:50;98461.03;;;1.49;85.07
62402;BME280;48440;51.224;22.506;2022-12-07T14:38:15;98464.31;;;1.51;85.00
62402;BME280;48440;51.224;22.506;2022-12-07T14:40:43;98470.09;;;1.48;84.91
62402;BME280;48440;51.224;22.506;2022-12-07T14:43:12;98467.84;;;1.45;84.71
62402;BME280;48440;51.224;22.506;2022-12-07T14:45:38;98466.00;;;1.46;85.07
62402;BME280;48440;51.224;22.506;2022-12-07T14:48:05;98463.72;;;1.49;85.47
62402;BME280;48440;51.224;22.506;2022-12-07T14:50:35;98471.72;;;1.49;85.06
62402;BME280;48440;51.224;22.506;2022-12-07T14:53:09;98469.66;;;1.51;84.76
62402;BME280;48440;51.224;22.506;2022-12-07T14:55:37;98473.38;;;1.50;84.65
62402;BME280;48440;51.224;22.506;2022-12-07T14:58:02;98463.91;;;1.48;85.06
62402;BME280;48440;51.224;22.506;2022-12-07T15:00:29;98481.59;;;1.49;84.90
62402;BME280;48440;51.224;22.506;2022-12-07T15:02:55;98471.72;;;1.49;84.90
62402;BME280;48440;51.224;22.506;2022-12-07T15:05:20;98462.88;;;1.49;85.49
62402;BME280;48440;51.224;22.506;2022-12-07T15:07:47;98465.34;;;1.50;85.44
62402;BME280;48440;51.224;22.506;2022-12-07T15:10:22;98462.59;;;1.57;85.03
62402;BME280;48440;51.224;22.506;2022-12-07T15:12:48;98460.75;;;1.57;84.61
62402;BME280;48440;51.224;22.506;2022-12-07T15:15:14;98464.91;;;1.53;84.88
62402;BME280;48440;51.224;22.506;2022-12-07T15:17:39;98461.84;;;1.50;84.84
62402;BME280;48440;51.224;22.506;2022-12-07T15:20:09;98458.75;;;1.53;85.02
62402;BME280;48440;51.224;22.506;2022-12-07T15:22:36;98456.69;;;1.55;84.64
62402;BME280;48440;51.224;22.506;2022-12-07T15:25:02;98459.56;;;1.53;84.79
62402;BME280;48440;51.224;22.506;2022-12-07T15:27:30;98457.31;;;1.50;85.16
62402;BME280;48440;51.224;22.506;2022-12-07T15:29:55;98451.97;;;1.50;85.30
62402;BME280;48440;51.224;22.506;2022-12-07T15:32:21;98456.69;;;1.55;85.41
62402;BME280;48440;51.224;22.506;2022-12-07T15:34:48;98459.34;;;1.55;85.07
62402;BME280;48440;51.224;22.506;2022-12-07T15:37:13;98462.59;;;1.57;85.08
62402;BME280;48440;51.224;22.506;2022-12-07T15:39:39;98462.03;;;1.55;85.01
62402;BME280;48440;51.224;22.506;2022-12-07T15:42:04;98461.22;;;1.54;84.84
62402;BME280;48440;51.224;22.506;2022-12-07T15:44:30;98456.44;;;1.56;84.73
62402;BME280;48440;51.224;22.506;2022-12-07T15:47:14;98459.50;;;1.60;84.44